createdAt,value
2019-02-06T00:01:32.829Z,10.93
2019-02-06T00:04:02.704Z,11.50
2019-02-06T00:06:32.645Z,11.17
2019-02-06T00:09:04.581Z,11.67
2019-02-06T00:11:35.113Z,9.83
2019-02-06T00:14:05.383Z,8.97
2019-02-06T00:16:35.664Z,8.80
2019-02-06T00:19:05.814Z,9.53
2019-02-06T00:21:36.400Z,9.87
2019-02-06T00:24:07.340Z,9.00
2019-02-06T00:26:37.244Z,7.67
2019-02-06T00:29:07.068Z,8.67
2019-02-06T00:31:37.384Z,8.77
2019-02-06T00:34:07.296Z,8.53
2019-02-06T00:36:37.313Z,9.07
2019-02-06T00:39:10.501Z,8.17
2019-02-06T00:41:40.467Z,8.03
2019-02-06T00:44:10.439Z,9.17
2019-02-06T00:46:40.247Z,10.17
2019-02-06T00:49:10.276Z,9.20
2019-02-06T00:51:39.886Z,10.17
2019-02-06T00:54:09.780Z,9.83
2019-02-06T00:56:39.389Z,11.00
2019-02-06T00:59:09.427Z,9.13
2019-02-06T01:01:39.099Z,12.07
2019-02-06T01:04:09.332Z,10.97
2019-02-06T01:06:38.973Z,11.03
2019-02-06T01:09:10.710Z,10.73
2019-02-06T01:11:40.304Z,9.63
2019-02-06T01:14:09.916Z,9.50
2019-02-06T01:16:39.716Z,9.47
2019-02-06T01:19:09.833Z,7.33
2019-02-06T01:21:39.724Z,8.43
2019-02-06T01:24:09.457Z,9.63
2019-02-06T01:26:39.008Z,10.20
2019-02-06T01:29:08.624Z,8.90
2019-02-06T01:31:38.476Z,10.43
2019-02-06T01:34:08.624Z,9.73
2019-02-06T01:36:38.415Z,10.80
2019-02-06T01:39:12.733Z,10.17
2019-02-06T01:41:42.342Z,10.17
2019-02-06T01:44:11.884Z,9.73
2019-02-06T01:46:41.748Z,10.00
2019-02-06T01:49:11.280Z,9.83
2019-02-06T01:51:41.167Z,10.40
2019-02-06T01:54:10.736Z,10.03
2019-02-06T01:56:40.676Z,9.50
2019-02-06T01:59:10.391Z,10.63
2019-02-06T02:01:40.140Z,10.87
2019-02-06T02:04:09.785Z,10.03
2019-02-06T02:06:39.620Z,10.40
2019-02-06T02:09:18.752Z,10.00
2019-02-06T02:11:48.870Z,10.20
2019-02-06T02:14:18.781Z,8.47
2019-02-06T02:16:48.627Z,9.17
2019-02-06T02:19:18.445Z,9.40
2019-02-06T02:21:48.076Z,9.30
2019-02-06T02:24:17.651Z,9.43
2019-02-06T02:26:47.470Z,8.87
2019-02-06T02:29:17.345Z,8.73
2019-02-06T02:31:47.464Z,9.70
2019-02-06T02:34:17.056Z,8.60
2019-02-06T02:36:46.626Z,9.67
2019-02-06T02:39:16.588Z,8.50
2019-02-06T02:41:46.234Z,8.33
2019-02-06T02:44:15.787Z,8.63
2019-02-06T02:46:45.352Z,9.60
2019-02-06T02:49:15.152Z,9.40
2019-02-06T02:51:45.141Z,9.17
2019-02-06T02:54:14.814Z,9.40
2019-02-06T02:56:44.447Z,9.07
2019-02-06T02:59:14.180Z,9.47
2019-02-06T03:01:54.018Z,9.53
2019-02-06T03:04:40.176Z,8.67
2019-02-06T03:07:09.880Z,8.73
2019-02-06T03:09:40.021Z,8.43
2019-02-06T03:12:09.934Z,8.60
2019-02-06T03:14:39.468Z,8.87
2019-02-06T03:17:24.825Z,9.07
2019-02-06T03:19:54.625Z,9.40
2019-02-06T03:22:24.436Z,8.37
2019-02-06T03:24:57.420Z,10.57
2019-02-06T03:27:27.001Z,9.50
2019-02-06T03:29:56.843Z,7.83
2019-02-06T03:32:26.453Z,9.27
2019-02-06T03:34:56.352Z,9.07
2019-02-06T03:37:26.171Z,7.50
2019-02-06T03:39:55.982Z,9.97
2019-02-06T03:42:26.095Z,9.10
2019-02-06T03:44:55.807Z,10.07
2019-02-06T03:47:25.617Z,8.00
2019-02-06T03:49:55.699Z,8.77
2019-02-06T03:52:25.456Z,9.33
2019-02-06T03:54:55.040Z,9.03
2019-02-06T03:57:24.701Z,8.70
2019-02-06T03:59:54.348Z,11.37
2019-02-06T04:02:24.177Z,9.30
2019-02-06T04:04:54.292Z,9.03
2019-02-06T04:07:24.517Z,8.57
2019-02-06T04:09:54.164Z,8.60
2019-02-06T04:12:23.833Z,9.63
2019-02-06T04:14:53.747Z,9.27
2019-02-06T04:17:23.296Z,9.37
2019-02-06T04:19:53.572Z,8.10
2019-02-06T04:22:23.110Z,9.00
2019-02-06T04:24:53.399Z,8.93
2019-02-06T04:27:22.936Z,9.20
2019-02-06T04:29:53.429Z,9.07
2019-02-06T04:32:41.367Z,8.87
2019-02-06T04:35:12.029Z,9.43
2019-02-06T04:37:41.565Z,8.60
2019-02-06T04:40:18.320Z,9.53
2019-02-06T04:42:48.648Z,10.53
2019-02-06T04:45:18.865Z,10.83
2019-02-06T04:47:48.402Z,10.47
2019-02-06T04:50:18.519Z,10.67
2019-02-06T04:52:48.352Z,11.50
2019-02-06T04:55:18.369Z,15.33
2019-02-06T04:57:48.352Z,14.23
2019-02-06T05:00:20.357Z,13.20
2019-02-06T05:02:50.277Z,11.20
2019-02-06T05:05:20.378Z,11.13
2019-02-06T05:07:50.085Z,11.27
2019-02-06T05:10:19.732Z,11.47
2019-02-06T05:12:49.600Z,9.63
2019-02-06T05:15:19.621Z,10.67
2019-02-06T05:17:49.245Z,10.30
2019-02-06T05:20:35.352Z,8.20
2019-02-06T05:23:05.348Z,9.57
2019-02-06T05:25:35.351Z,9.03
2019-02-06T05:28:05.684Z,10.40
2019-02-06T05:30:35.264Z,9.87
2019-02-06T05:33:05.240Z,9.40
2019-02-06T05:35:34.897Z,10.03
2019-02-06T05:38:04.923Z,12.30
2019-02-06T05:40:34.529Z,13.93
2019-02-06T05:43:04.456Z,11.60
2019-02-06T05:45:34.144Z,11.37
2019-02-06T05:48:03.790Z,10.10
2019-02-06T05:50:33.489Z,9.43
2019-02-06T05:53:03.100Z,11.43
2019-02-06T05:55:32.632Z,11.30
2019-02-06T05:58:02.594Z,12.40
2019-02-06T06:00:36.337Z,15.57
2019-02-06T06:03:06.420Z,12.87
2019-02-06T06:05:36.222Z,13.07
2019-02-06T06:08:06.232Z,12.47
2019-02-06T06:10:35.806Z,12.80
2019-02-06T06:13:05.452Z,15.47
2019-02-06T06:15:35.361Z,14.60
2019-02-06T06:18:05.480Z,13.17
2019-02-06T06:20:35.105Z,12.30
2019-02-06T06:23:04.719Z,12.77
2019-02-06T06:25:34.482Z,12.80
2019-02-06T06:28:04.414Z,13.33
2019-02-06T06:30:34.033Z,12.63
2019-02-06T06:33:03.833Z,12.43
2019-02-06T06:35:33.750Z,13.87
2019-02-06T06:38:03.314Z,13.90
2019-02-06T06:40:32.916Z,13.53
2019-02-06T06:43:02.774Z,14.43
2019-02-06T06:45:32.503Z,13.50
2019-02-06T06:48:02.032Z,10.83
2019-02-06T06:50:31.896Z,11.50
2019-02-06T06:53:01.715Z,11.53
2019-02-06T06:55:31.404Z,12.53
2019-02-06T06:58:01.251Z,12.93
2019-02-06T07:00:31.712Z,12.80
2019-02-06T07:03:01.566Z,10.03
2019-02-06T07:05:31.168Z,9.63
2019-02-06T07:08:09.195Z,10.40
2019-02-06T07:10:32.316Z,10.80
2019-02-06T07:13:01.897Z,11.20
2019-02-06T07:15:33.741Z,10.17
2019-02-06T07:18:05.765Z,11.17
2019-02-06T07:20:35.979Z,9.57
2019-02-06T07:23:05.992Z,10.90
2019-02-06T07:25:35.844Z,9.53
2019-02-06T07:28:05.748Z,9.67
2019-02-06T07:30:37.557Z,10.80
2019-02-06T07:33:07.488Z,11.40
2019-02-06T07:35:37.401Z,11.67
2019-02-06T07:38:06.957Z,13.10
2019-02-06T07:40:36.820Z,13.40
2019-02-06T07:43:07.144Z,12.20
2019-02-06T07:45:36.960Z,12.10
2019-02-06T07:48:06.567Z,11.97
2019-02-06T07:50:36.693Z,12.77
2019-02-06T07:53:06.295Z,13.63
2019-02-06T07:55:36.446Z,12.90
2019-02-06T07:58:06.730Z,13.20
2019-02-06T08:00:36.641Z,12.37
2019-02-06T08:03:06.979Z,11.93
2019-02-06T08:05:37.361Z,12.87
2019-02-06T08:08:07.300Z,11.90
2019-02-06T08:10:38.840Z,10.67
2019-02-06T08:13:08.747Z,11.40
2019-02-06T08:15:38.781Z,10.20
2019-02-06T08:18:09.001Z,11.00
2019-02-06T08:20:39.133Z,11.63
2019-02-06T08:23:08.736Z,11.80
2019-02-06T08:25:38.944Z,11.40
2019-02-06T08:28:08.648Z,11.53
2019-02-06T08:30:40.033Z,11.23
2019-02-06T08:33:10.328Z,11.63
2019-02-06T08:35:39.954Z,14.40
2019-02-06T08:38:10.260Z,13.60
2019-02-06T08:40:41.100Z,14.70
2019-02-06T08:43:22.298Z,12.50
2019-02-06T08:45:59.060Z,12.60
2019-02-06T08:48:28.600Z,11.13
2019-02-06T08:50:59.800Z,13.70
2019-02-06T08:53:30.112Z,13.03
2019-02-06T08:56:00.030Z,13.10
2019-02-06T08:58:54.209Z,12.47
2019-02-06T09:01:23.803Z,12.67
2019-02-06T09:03:53.565Z,13.93
2019-02-06T09:06:23.445Z,12.57
2019-02-06T09:08:59.722Z,14.67
2019-02-06T09:11:24.519Z,13.63
2019-02-06T09:13:54.152Z,12.27
2019-02-06T09:16:24.426Z,11.20
2019-02-06T09:19:00.639Z,14.20
2019-02-06T09:21:30.601Z,14.43
2019-02-06T09:24:00.420Z,13.97
2019-02-06T09:26:33.956Z,14.10
2019-02-06T09:29:01.680Z,12.67
2019-02-06T09:31:31.572Z,13.93
2019-02-06T09:34:01.400Z,14.70
2019-02-06T09:36:31.717Z,13.07
2019-02-06T09:39:11.341Z,14.90
2019-02-06T09:41:32.928Z,14.90
2019-02-06T09:44:02.476Z,13.93
2019-02-06T09:46:32.294Z,11.87
2019-02-06T09:49:02.101Z,13.17
2019-02-06T09:51:32.602Z,13.70
2019-02-06T09:54:02.445Z,13.00
2019-02-06T09:56:32.257Z,13.83
2019-02-06T09:59:02.061Z,13.47
2019-02-06T10:01:31.608Z,13.93
2019-02-06T10:04:12.239Z,12.90
2019-02-06T10:06:42.153Z,14.97
2019-02-06T10:09:22.293Z,13.27
2019-02-06T10:11:43.613Z,11.67
2019-02-06T10:14:20.588Z,11.13
2019-02-06T10:16:50.912Z,16.90
2019-02-06T10:19:20.463Z,11.67
2019-02-06T10:21:53.596Z,14.57
2019-02-06T10:24:22.191Z,14.67
2019-02-06T10:26:52.105Z,14.87
2019-02-06T10:29:21.925Z,15.53
2019-02-06T10:31:52.242Z,13.40
2019-02-06T10:34:21.775Z,12.33
2019-02-06T10:37:29.972Z,13.33
2019-02-06T10:39:59.865Z,14.63
2019-02-06T10:42:29.625Z,14.83
2019-02-06T10:44:59.606Z,15.03
2019-02-06T10:47:39.547Z,13.43
2019-02-06T10:50:10.805Z,14.10
2019-02-06T10:52:40.968Z,12.77
2019-02-06T10:55:13.580Z,12.80
2019-02-06T10:57:43.597Z,12.83
2019-02-06T11:00:17.500Z,15.17
2019-02-06T11:02:47.417Z,15.53
2019-02-06T11:05:17.951Z,13.63
2019-02-06T11:07:47.966Z,13.20
2019-02-06T11:10:18.597Z,17.13
2019-02-06T11:12:48.608Z,13.77
2019-02-06T11:15:18.726Z,13.67
2019-02-06T11:17:48.615Z,15.83
2019-02-06T11:20:19.634Z,13.63
2019-02-06T11:22:49.253Z,17.93
2019-02-06T11:25:19.403Z,14.10
2019-02-06T11:27:49.098Z,13.30
2019-02-06T11:30:21.385Z,13.80
2019-02-06T11:32:52.008Z,14.13
2019-02-06T11:35:21.821Z,13.27
2019-02-06T11:37:51.629Z,12.57
2019-02-06T11:40:22.971Z,16.27
2019-02-06T11:42:53.097Z,11.73
2019-02-06T11:45:26.292Z,12.37
2019-02-06T11:47:55.969Z,12.87
2019-02-06T11:50:33.479Z,14.37
2019-02-06T11:53:07.437Z,15.97
2019-02-06T11:55:37.135Z,14.07
2019-02-06T11:58:07.737Z,12.37
2019-02-06T12:01:10.419Z,16.23
2019-02-06T12:03:40.336Z,15.67
2019-02-06T12:06:10.649Z,16.20
2019-02-06T12:08:40.561Z,14.03
2019-02-06T12:11:10.780Z,18.10
2019-02-06T12:13:41.007Z,16.50
2019-02-06T12:16:28.380Z,12.80
2019-02-06T12:18:58.451Z,12.87
2019-02-06T12:21:27.980Z,13.00
2019-02-06T12:23:57.884Z,20.43
2019-02-06T12:26:27.566Z,14.60
2019-02-06T12:29:09.228Z,12.37
2019-02-06T12:31:39.234Z,12.50
2019-02-06T12:34:09.187Z,12.60
2019-02-06T12:36:38.822Z,12.37
2019-02-06T12:39:14.689Z,14.37
2019-02-06T12:41:44.223Z,14.77
2019-02-06T12:44:14.064Z,13.23
2019-02-06T12:46:44.288Z,13.30
2019-02-06T12:50:08.298Z,12.30
2019-02-06T12:52:37.917Z,10.87
2019-02-06T12:55:10.581Z,12.43
2019-02-06T12:57:40.569Z,12.73
2019-02-06T13:00:15.088Z,14.00
2019-02-06T13:02:44.644Z,13.40
2019-02-06T13:05:14.913Z,11.77
2019-02-06T13:07:44.616Z,13.87
2019-02-06T13:10:14.844Z,12.33
2019-02-06T13:12:44.661Z,15.27
2019-02-06T13:15:14.641Z,14.53
2019-02-06T13:17:44.884Z,13.80
2019-02-06T13:20:21.071Z,11.93
2019-02-06T13:22:51.155Z,11.67
2019-02-06T13:25:21.033Z,12.50
2019-02-06T13:27:50.675Z,14.87
2019-02-06T13:30:25.664Z,13.40
2019-02-06T13:32:55.984Z,14.83
2019-02-06T13:35:25.540Z,14.97
2019-02-06T13:37:55.204Z,11.53
2019-02-06T13:40:26.296Z,10.43
2019-02-06T13:42:56.388Z,13.47
2019-02-06T13:45:28.896Z,10.80
2019-02-06T13:48:13.550Z,13.97
2019-02-06T13:50:43.569Z,12.20
2019-02-06T13:53:13.184Z,12.80
2019-02-06T13:55:43.196Z,11.13
2019-02-06T13:58:37.517Z,11.87
2019-02-06T14:01:07.513Z,11.10
2019-02-06T14:03:37.396Z,13.23
2019-02-06T14:06:07.625Z,12.77
2019-02-06T14:08:39.406Z,11.47
2019-02-06T14:11:09.399Z,12.00
2019-02-06T14:13:39.512Z,12.13
2019-02-06T14:16:10.069Z,9.67
2019-02-06T14:18:39.953Z,10.90
2019-02-06T14:21:36.215Z,11.07
2019-02-06T14:24:25.244Z,12.83
2019-02-06T14:27:30.077Z,12.17
2019-02-06T14:30:42.668Z,11.73
2019-02-06T14:33:56.288Z,13.47
2019-02-06T14:36:59.108Z,12.70
2019-02-06T14:39:44.381Z,12.17
2019-02-06T14:42:36.894Z,10.50
2019-02-06T14:45:56.804Z,14.87
2019-02-06T14:48:50.508Z,10.93
2019-02-06T14:51:50.501Z,14.00
2019-02-06T14:54:56.870Z,9.87
2019-02-06T14:57:56.276Z,10.27
2019-02-06T15:00:46.860Z,10.10
2019-02-06T15:03:45.016Z,18.20
2019-02-06T15:06:57.759Z,11.37
2019-02-06T15:10:08.944Z,10.37
2019-02-06T15:13:28.413Z,11.43
2019-02-06T15:16:51.034Z,11.00
2019-02-06T15:19:59.805Z,11.00
2019-02-06T15:23:32.999Z,14.27
2019-02-06T15:26:23.929Z,12.27
2019-02-06T15:29:41.018Z,10.97
2019-02-06T15:32:53.881Z,10.37
2019-02-06T15:36:25.979Z,11.90
2019-02-06T15:39:26.290Z,13.07
2019-02-06T15:42:29.234Z,12.90
2019-02-06T15:45:22.816Z,15.00
2019-02-06T15:48:38.881Z,14.20
2019-02-06T15:51:49.353Z,13.47
2019-02-06T15:54:40.009Z,14.30
2019-02-06T15:57:35.973Z,11.90
2019-02-06T16:00:34.144Z,14.80
2019-02-06T16:03:16.892Z,13.07
2019-02-06T16:06:37.769Z,14.27
2019-02-06T16:09:47.004Z,15.47
2019-02-06T16:12:32.068Z,16.83
2019-02-06T16:15:44.713Z,16.43
2019-02-06T16:18:37.284Z,15.77
2019-02-06T16:21:57.829Z,16.57
2019-02-06T16:24:54.672Z,15.10
2019-02-06T16:27:50.289Z,14.70
2019-02-06T16:30:51.229Z,15.40
2019-02-06T16:33:50.133Z,16.63
2019-02-06T16:36:45.160Z,19.03
2019-02-06T16:39:31.225Z,15.73
2019-02-06T16:42:42.192Z,17.33
2019-02-06T16:45:51.446Z,15.73
2019-02-06T16:49:14.389Z,16.43
2019-02-06T16:52:10.613Z,14.67
2019-02-06T16:55:12.484Z,15.07
2019-02-06T16:58:24.684Z,14.80
2019-02-06T17:01:44.769Z,13.73
2019-02-06T17:04:41.265Z,13.43
2019-02-06T17:07:51.984Z,12.73
2019-02-06T17:10:57.812Z,13.33
2019-02-06T17:14:04.200Z,15.23
2019-02-06T17:17:01.508Z,16.43
2019-02-06T17:19:52.880Z,16.20
2019-02-06T17:23:05.412Z,20.75
2019-02-06T17:25:57.900Z,18.70
2019-02-06T17:28:50.447Z,23.07
2019-02-06T17:31:47.421Z,20.33
2019-02-06T17:34:58.403Z,16.97
2019-02-06T17:38:05.454Z,17.30
2019-02-06T17:41:09.496Z,14.80
2019-02-06T17:44:31.208Z,14.53
2019-02-06T17:47:15.682Z,12.80
2019-02-06T17:50:26.445Z,14.20
2019-02-06T17:53:27.997Z,14.63
2019-02-06T17:55:57.913Z,14.40
2019-02-06T17:58:30.802Z,15.63
2019-02-06T18:01:17.357Z,14.57
2019-02-06T18:03:57.404Z,16.03
2019-02-06T18:06:27.668Z,18.87
2019-02-06T18:09:13.287Z,20.23
2019-02-06T18:11:43.213Z,17.43
2019-02-06T18:14:13.083Z,17.07
2019-02-06T18:16:43.104Z,17.20
2019-02-06T18:19:12.909Z,17.90
2019-02-06T18:21:42.725Z,16.10
2019-02-06T18:24:12.568Z,15.63
2019-02-06T18:26:45.144Z,14.40
2019-02-06T18:29:14.781Z,14.23
2019-02-06T18:31:44.544Z,16.93
2019-02-06T18:34:14.231Z,14.40
2019-02-06T18:36:43.840Z,14.10
2019-02-06T18:39:14.611Z,15.30
2019-02-06T18:41:44.689Z,13.73
2019-02-06T18:44:14.409Z,12.13
2019-02-06T18:46:45.437Z,12.63
2019-02-06T18:49:16.376Z,12.13
2019-02-06T18:51:46.157Z,12.63
2019-02-06T18:54:16.054Z,13.53
2019-02-06T18:56:46.072Z,14.33
2019-02-06T18:59:15.757Z,13.83
2019-02-06T19:01:45.681Z,14.23
2019-02-06T19:04:17.768Z,14.70
2019-02-06T19:06:49.558Z,15.93
2019-02-06T19:09:20.296Z,15.20
2019-02-06T19:11:49.945Z,15.37
2019-02-06T19:14:20.368Z,16.87
2019-02-06T19:16:56.479Z,15.87
2019-02-06T19:19:26.012Z,15.93
2019-02-06T19:21:55.608Z,14.63
2019-02-06T19:24:26.113Z,15.07
2019-02-06T19:27:03.096Z,15.03
2019-02-06T19:29:32.756Z,13.60
2019-02-06T19:32:02.717Z,15.23
2019-02-06T19:34:32.528Z,14.20
2019-02-06T19:37:02.344Z,13.27
2019-02-06T19:39:32.456Z,13.77
2019-02-06T19:42:02.273Z,14.13
2019-02-06T19:44:32.174Z,14.37
2019-02-06T19:47:01.940Z,13.20
2019-02-06T19:49:31.556Z,14.37
2019-02-06T19:52:01.560Z,17.60
2019-02-06T19:54:31.423Z,14.53
2019-02-06T19:57:01.237Z,16.83
2019-02-06T19:59:31.157Z,15.57
2019-02-06T20:02:00.865Z,16.80
2019-02-06T20:04:30.472Z,18.63
2019-02-06T20:07:00.041Z,15.77
2019-02-06T20:09:30.410Z,15.03
2019-02-06T20:12:00.072Z,14.67
2019-02-06T20:14:30.323Z,14.20
2019-02-06T20:17:00.256Z,14.00
2019-02-06T20:19:30.140Z,11.90
2019-02-06T20:22:00.166Z,13.87
2019-02-06T20:24:30.122Z,15.20
2019-02-06T20:26:59.716Z,13.37
2019-02-06T20:29:29.614Z,15.17
2019-02-06T20:31:59.512Z,16.23
2019-02-06T20:34:29.333Z,14.70
2019-02-06T20:36:58.992Z,15.17
2019-02-06T20:39:28.840Z,14.43
2019-02-06T20:41:58.381Z,14.07
2019-02-06T20:44:29.793Z,13.50
2019-02-06T20:46:59.255Z,15.33
2019-02-06T20:49:33.825Z,14.90
2019-02-06T20:52:10.184Z,13.97
2019-02-06T20:54:40.404Z,14.37
2019-02-06T20:57:13.755Z,14.27
2019-02-06T20:59:41.897Z,14.30
2019-02-06T21:02:11.793Z,12.84
2019-02-06T21:04:41.339Z,14.07
2019-02-06T21:07:11.209Z,13.73
2019-02-06T21:09:40.792Z,14.50
2019-02-06T21:12:10.336Z,14.60
2019-02-06T21:14:40.228Z,13.73
2019-02-06T21:17:10.142Z,14.10
2019-02-06T21:19:39.728Z,13.47
2019-02-06T21:22:09.663Z,15.03
2019-02-06T21:24:39.212Z,14.70
2019-02-06T21:27:09.081Z,16.07
2019-02-06T21:29:39.396Z,18.17
2019-02-06T21:32:08.957Z,15.43
2019-02-06T21:34:38.864Z,16.00
2019-02-06T21:37:09.046Z,15.67
2019-02-06T21:39:38.707Z,15.57
2019-02-06T21:42:08.557Z,17.90
2019-02-06T21:44:38.127Z,16.93
2019-02-06T21:47:08.185Z,16.67
2019-02-06T21:49:39.117Z,18.60
2019-02-06T21:52:09.034Z,17.77
2019-02-06T21:54:38.800Z,14.83
2019-02-06T21:57:08.649Z,15.10
2019-02-06T21:59:38.569Z,17.93
2019-02-06T22:02:08.841Z,15.77
2019-02-06T22:04:38.412Z,17.30
2019-02-06T22:07:08.513Z,15.93
2019-02-06T22:09:38.068Z,16.00
2019-02-06T22:12:07.607Z,16.77
2019-02-06T22:14:37.241Z,14.03
2019-02-06T22:17:06.858Z,14.50
2019-02-06T22:19:36.981Z,15.83
2019-02-06T22:22:07.172Z,17.80
2019-02-06T22:24:38.721Z,19.23
2019-02-06T22:27:08.536Z,15.80
2019-02-06T22:29:38.565Z,14.90
2019-02-06T22:32:08.473Z,15.10
2019-02-06T22:34:38.272Z,14.30
2019-02-06T22:37:08.169Z,14.70
2019-02-06T22:39:37.727Z,16.17
2019-02-06T22:42:07.513Z,16.53
2019-02-06T22:44:37.725Z,17.00
2019-02-06T22:47:07.941Z,16.33
2019-02-06T22:49:38.060Z,17.00
2019-02-06T22:52:07.928Z,16.37
2019-02-06T22:54:37.768Z,18.53
2019-02-06T22:57:07.597Z,22.47
2019-02-06T22:59:37.409Z,21.57
2019-02-06T23:02:07.933Z,20.67
2019-02-06T23:04:38.165Z,16.90
2019-02-06T23:07:08.349Z,16.53
2019-02-06T23:09:38.193Z,15.60
2019-02-06T23:12:08.700Z,14.87
2019-02-06T23:14:38.634Z,14.23
2019-02-06T23:17:08.648Z,15.10
2019-02-06T23:19:38.576Z,15.37
2019-02-06T23:22:08.676Z,16.33
2019-02-06T23:24:38.220Z,14.13
2019-02-06T23:27:08.102Z,14.47
2019-02-06T23:29:58.565Z,14.83
2019-02-06T23:32:28.392Z,13.17
2019-02-06T23:34:58.313Z,14.77
2019-02-06T23:37:28.126Z,15.53
2019-02-06T23:39:58.041Z,13.80
2019-02-06T23:42:27.648Z,15.13
2019-02-06T23:44:57.216Z,14.63
2019-02-06T23:47:27.164Z,15.03
2019-02-06T23:49:58.613Z,16.27
2019-02-06T23:52:28.416Z,14.73
2019-02-06T23:54:58.047Z,15.23
2019-02-06T23:57:27.808Z,14.83
2019-02-06T23:59:57.652Z,15.97
